createdAt,value
2023-11-30T00:01:15.152Z,-2.34
2023-11-30T00:05:17.376Z,-2.25
2023-11-30T00:09:19.851Z,-2.21
2023-11-30T00:13:22.735Z,-2.22
2023-11-30T00:17:24.292Z,-2.18
2023-11-30T00:21:25.868Z,-2.12
2023-11-30T00:25:27.410Z,-2.14
2023-11-30T00:29:30.279Z,-2.03
2023-11-30T00:33:31.805Z,-1.98
2023-11-30T00:37:33.352Z,-1.88
2023-11-30T00:41:35.394Z,-1.78
2023-11-30T00:45:38.256Z,-1.74
2023-11-30T00:49:39.790Z,-1.71
2023-11-30T00:53:41.312Z,-1.73
2023-11-30T00:57:42.837Z,-1.76
2023-11-30T01:01:45.754Z,-1.76
2023-11-30T01:05:47.435Z,-1.68
2023-11-30T01:09:49.167Z,-1.69
2023-11-30T01:13:50.632Z,-1.66
2023-11-30T01:17:53.598Z,-1.75
2023-11-30T01:21:55.389Z,-1.79
2023-11-30T01:25:56.881Z,-1.73
2023-11-30T01:29:58.415Z,-1.67
2023-11-30T01:34:01.280Z,-1.75
2023-11-30T01:38:02.808Z,-1.82
2023-11-30T01:42:05.973Z,-1.80
2023-11-30T01:46:07.786Z,-1.92
2023-11-30T01:50:10.876Z,-1.90
2023-11-30T01:54:13.630Z,-1.88
2023-11-30T01:58:15.490Z,-1.89
2023-11-30T02:02:19.967Z,-1.87
2023-11-30T02:06:23.245Z,-1.79
2023-11-30T02:10:24.837Z,-1.84
2023-11-30T02:14:26.331Z,-1.74
2023-11-30T02:18:27.863Z,-1.59
2023-11-30T02:22:30.683Z,-1.60
2023-11-30T02:26:32.177Z,-1.65
2023-11-30T02:30:33.690Z,-1.67
2023-11-30T02:34:35.435Z,-1.57
2023-11-30T02:38:38.252Z,-1.54
2023-11-30T02:42:39.774Z,-1.50
2023-11-30T02:46:41.272Z,-1.48
2023-11-30T02:50:42.769Z,-1.51
2023-11-30T02:54:45.622Z,-1.43
2023-11-30T02:58:47.135Z,-1.51
2023-11-30T03:02:48.705Z,-1.54
2023-11-30T03:06:50.305Z,-1.53
2023-11-30T03:10:54.012Z,-1.55
2023-11-30T03:14:55.627Z,-1.66
2023-11-30T03:19:09.904Z,-1.70
2023-11-30T03:23:17.536Z,-1.76
2023-11-30T03:27:20.593Z,-1.78
2023-11-30T03:31:22.083Z,-1.82
2023-11-30T03:35:23.606Z,-1.80
2023-11-30T03:39:25.219Z,-1.85
2023-11-30T03:43:28.099Z,-1.83
2023-11-30T03:47:29.629Z,-1.86
2023-11-30T03:51:31.164Z,-1.92
2023-11-30T03:55:32.670Z,-1.91
2023-11-30T03:59:35.493Z,-2.00
2023-11-30T04:03:37.097Z,-2.06
2023-11-30T04:07:38.594Z,-2.08
2023-11-30T04:11:40.088Z,-2.07
2023-11-30T04:15:43.080Z,-2.01
2023-11-30T04:19:44.570Z,-2.07
2023-11-30T04:23:46.065Z,-2.10
2023-11-30T04:27:47.571Z,-2.06
2023-11-30T04:31:50.496Z,-2.04
2023-11-30T04:35:51.989Z,-2.02
2023-11-30T04:39:53.589Z,-2.01
2023-11-30T04:43:55.110Z,-1.90
2023-11-30T04:47:57.996Z,-1.93
2023-11-30T04:51:59.551Z,-1.97
2023-11-30T04:56:01.081Z,-1.99
2023-11-30T05:00:03.216Z,-2.04
2023-11-30T05:04:06.366Z,-2.21
2023-11-30T05:08:08.033Z,-2.41
2023-11-30T05:12:09.668Z,-2.59
2023-11-30T05:16:11.252Z,-2.81
2023-11-30T05:20:14.237Z,-2.95
2023-11-30T05:24:17.046Z,-3.08
2023-11-30T05:28:18.576Z,-3.28
2023-11-30T05:32:20.088Z,-3.41
2023-11-30T05:36:23.187Z,-3.33
2023-11-30T05:40:24.745Z,-3.36
2023-11-30T05:44:26.243Z,-3.43
2023-11-30T05:48:27.815Z,-3.48
2023-11-30T05:52:30.682Z,-3.70
2023-11-30T05:56:32.311Z,-3.60
2023-11-30T06:00:33.836Z,-3.56
2023-11-30T06:04:35.502Z,-3.53
2023-11-30T06:08:38.404Z,-3.64
2023-11-30T06:12:40.212Z,-3.52
2023-11-30T06:16:41.739Z,-3.32
2023-11-30T06:20:43.289Z,-3.26
2023-11-30T06:24:46.138Z,-3.15
2023-11-30T06:28:47.635Z,-3.05
2023-11-30T06:32:49.153Z,-3.09
2023-11-30T06:36:50.692Z,-3.13
2023-11-30T06:40:53.531Z,-3.18
2023-11-30T06:44:55.059Z,-3.08
2023-11-30T06:48:56.660Z,-3.08
2023-11-30T06:52:58.196Z,-3.10
2023-11-30T06:57:01.414Z,-3.05
2023-11-30T07:01:05.651Z,-3.09
2023-11-30T07:05:08.360Z,-3.33
2023-11-30T07:09:09.919Z,-3.50
2023-11-30T07:13:13.019Z,-3.60
2023-11-30T07:17:14.570Z,-3.55
2023-11-30T07:21:16.246Z,-3.43
2023-11-30T07:25:19.092Z,-3.36
2023-11-30T07:29:24.044Z,-3.31
2023-11-30T07:33:28.038Z,-3.25
2023-11-30T07:37:29.567Z,-3.28
2023-11-30T07:41:31.066Z,-3.32
2023-11-30T07:45:34.045Z,-3.44
2023-11-30T07:49:35.576Z,-3.44
2023-11-30T07:53:37.064Z,-3.37
2023-11-30T07:57:38.590Z,-3.23
2023-11-30T08:01:41.475Z,-3.21
2023-11-30T08:05:43.003Z,-3.11
2023-11-30T08:09:44.487Z,-3.03
2023-11-30T08:13:45.998Z,-2.81
2023-11-30T08:17:48.971Z,-2.76
2023-11-30T08:21:50.506Z,-2.64
2023-11-30T08:25:52.085Z,-2.64
2023-11-30T08:29:53.587Z,-2.56
2023-11-30T08:33:56.513Z,-2.52
2023-11-30T08:37:58.396Z,-2.40
2023-11-30T08:41:59.891Z,-2.29
2023-11-30T08:46:01.504Z,-2.27
2023-11-30T08:50:05.102Z,-2.23
2023-11-30T08:54:06.621Z,-2.16
2023-11-30T08:58:08.220Z,-2.08
2023-11-30T09:02:09.848Z,-2.01
2023-11-30T09:06:12.825Z,-1.89
2023-11-30T09:10:14.572Z,-1.74
2023-11-30T09:14:16.072Z,-1.79
2023-11-30T09:18:18.237Z,-1.80
2023-11-30T09:22:21.135Z,-1.81
2023-11-30T09:26:22.845Z,-1.74
2023-11-30T09:30:24.594Z,-1.55
2023-11-30T09:34:26.675Z,-1.60
2023-11-30T09:38:29.499Z,-1.54
2023-11-30T09:42:31.168Z,-1.41
2023-11-30T09:46:32.924Z,-1.40
2023-11-30T09:50:34.521Z,-1.49
2023-11-30T09:54:37.990Z,-1.47
2023-11-30T09:58:39.504Z,-1.42
2023-11-30T10:02:51.017Z,-1.35
2023-11-30T10:06:55.390Z,-1.41
2023-11-30T10:10:58.221Z,-1.55
2023-11-30T10:15:00.580Z,-1.47
2023-11-30T10:19:04.267Z,-1.22
2023-11-30T10:23:09.871Z,-1.10
2023-11-30T10:27:15.377Z,-1.11
2023-11-30T10:31:18.273Z,-1.49
2023-11-30T10:35:20.991Z,-1.42
2023-11-30T10:39:24.972Z,-1.36
2023-11-30T10:43:31.933Z,-1.27
2023-11-30T10:47:38.778Z,-1.19
2023-11-30T10:51:40.589Z,-1.17
2023-11-30T10:55:43.010Z,-1.07
2023-11-30T10:59:46.293Z,-0.98
2023-11-30T11:03:48.600Z,-1.03
2023-11-30T11:07:51.644Z,-0.97
2023-11-30T11:12:00.303Z,-1.01
2023-11-30T11:16:03.514Z,-0.92
2023-11-30T11:20:07.785Z,-0.59
2023-11-30T11:24:09.446Z,-0.31
2023-11-30T11:28:11.023Z,-0.19
2023-11-30T11:32:14.653Z,-0.11
2023-11-30T11:36:16.211Z,-0.12
2023-11-30T11:40:17.700Z,0.03
2023-11-30T11:44:20.262Z,0.18
2023-11-30T11:48:24.323Z,0.29
2023-11-30T11:52:26.095Z,0.32
2023-11-30T11:56:27.629Z,0.25
2023-11-30T12:00:29.316Z,0.16
2023-11-30T12:04:33.874Z,0.19
2023-11-30T12:08:35.387Z,0.24
2023-11-30T12:12:36.908Z,0.37
2023-11-30T12:16:38.515Z,0.57
2023-11-30T12:20:41.626Z,0.82
2023-11-30T12:24:43.214Z,0.98
2023-11-30T12:28:44.726Z,0.91
2023-11-30T12:32:46.787Z,0.68
2023-11-30T12:36:51.082Z,0.74
2023-11-30T12:40:53.651Z,0.72
2023-11-30T12:44:55.272Z,0.74
2023-11-30T12:48:56.763Z,0.72
2023-11-30T12:52:59.656Z,0.54
2023-11-30T12:57:01.279Z,0.54
2023-11-30T13:01:03.099Z,0.40
2023-11-30T13:05:05.225Z,0.34
2023-11-30T13:09:09.595Z,0.26
2023-11-30T13:13:12.780Z,0.21
2023-11-30T13:17:14.266Z,0.11
2023-11-30T13:21:16.156Z,-0.08
2023-11-30T13:25:19.732Z,-0.16
2023-11-30T13:29:21.273Z,-0.13
2023-11-30T13:33:23.543Z,-0.18
2023-11-30T13:37:25.181Z,-0.18
2023-11-30T13:41:28.349Z,-0.19
2023-11-30T13:45:29.955Z,-0.10
2023-11-30T13:49:31.455Z,-0.17
2023-11-30T13:53:36.010Z,-0.22
2023-11-30T13:57:38.952Z,-0.31
2023-11-30T14:01:40.689Z,-0.52
2023-11-30T14:05:42.292Z,-0.46
2023-11-30T14:09:43.868Z,-0.47
2023-11-30T14:13:46.769Z,-0.66
2023-11-30T14:17:48.260Z,-0.79
2023-11-30T14:21:49.792Z,-0.82
2023-11-30T14:25:51.319Z,-1.11
2023-11-30T14:29:54.253Z,-1.32
2023-11-30T14:33:55.755Z,-1.45
2023-11-30T14:37:57.237Z,-1.35
2023-11-30T14:41:58.773Z,-1.35
2023-11-30T14:46:01.726Z,-1.38
2023-11-30T14:50:03.510Z,-1.40
2023-11-30T14:54:05.289Z,-1.48
2023-11-30T14:58:06.900Z,-1.45
2023-11-30T15:02:09.815Z,-1.34
2023-11-30T15:06:11.339Z,-1.48
2023-11-30T15:10:13.676Z,-1.62
2023-11-30T15:14:15.195Z,-1.72
2023-11-30T15:18:18.108Z,-1.71
2023-11-30T15:22:19.676Z,-1.69
2023-11-30T15:26:21.399Z,-1.62
2023-11-30T15:30:22.953Z,-1.65
2023-11-30T15:34:25.884Z,-1.73
2023-11-30T15:38:30.065Z,-1.76
2023-11-30T15:42:31.584Z,-1.87
2023-11-30T15:46:36.276Z,-1.80
2023-11-30T15:50:39.114Z,-1.69
2023-11-30T15:54:41.085Z,-1.48
2023-11-30T15:58:42.829Z,-1.36
2023-11-30T16:02:44.676Z,-1.36
2023-11-30T16:06:48.023Z,-1.31
2023-11-30T16:10:49.542Z,-1.31
2023-11-30T16:14:51.022Z,-1.33
2023-11-30T16:18:52.585Z,-1.22
2023-11-30T16:22:55.544Z,-1.24
2023-11-30T16:26:57.492Z,-1.22
2023-11-30T16:30:59.015Z,-1.24
2023-11-30T16:35:00.608Z,-1.28
2023-11-30T16:39:03.618Z,-1.28
2023-11-30T16:43:05.138Z,-1.37
2023-11-30T16:47:06.954Z,-1.23
2023-11-30T16:51:08.708Z,-1.24
2023-11-30T16:55:11.714Z,-1.31
2023-11-30T16:59:14.776Z,-1.34
2023-11-30T17:03:16.499Z,-1.31
2023-11-30T17:07:18.106Z,-1.20
2023-11-30T17:11:20.991Z,-1.26
2023-11-30T17:15:23.348Z,-1.29
2023-11-30T17:19:24.871Z,-1.22
2023-11-30T17:23:26.429Z,-1.18
2023-11-30T17:27:32.426Z,-1.22
2023-11-30T17:31:33.928Z,-1.29
2023-11-30T17:35:35.526Z,-1.29
2023-11-30T17:39:37.394Z,-1.31
2023-11-30T17:43:40.368Z,-1.25
2023-11-30T17:47:41.957Z,-1.25
2023-11-30T17:51:43.473Z,-1.25
2023-11-30T17:55:44.984Z,-1.28
2023-11-30T17:59:47.814Z,-1.27
2023-11-30T18:03:49.427Z,-1.30
2023-11-30T18:07:50.998Z,-1.28
2023-11-30T18:11:52.510Z,-1.30
2023-11-30T18:15:55.660Z,-1.28
2023-11-30T18:19:57.346Z,-1.31
2023-11-30T18:23:58.833Z,-1.31
2023-11-30T18:28:00.426Z,-1.32
2023-11-30T18:32:03.671Z,-1.31
2023-11-30T18:36:06.168Z,-1.31
2023-11-30T18:40:08.805Z,-1.37
2023-11-30T18:44:10.428Z,-1.36
2023-11-30T18:48:13.365Z,-1.37
2023-11-30T18:52:14.869Z,-1.39
2023-11-30T18:56:16.398Z,-1.43
2023-11-30T19:00:18.759Z,-1.39
2023-11-30T19:04:21.636Z,-1.44
2023-11-30T19:08:23.179Z,-1.44
2023-11-30T19:12:24.761Z,-1.51
2023-11-30T19:16:26.375Z,-1.47
2023-11-30T19:20:29.482Z,-1.46
2023-11-30T19:24:31.025Z,-1.46
2023-11-30T19:28:34.528Z,-1.49
2023-11-30T19:32:36.063Z,-1.48
2023-11-30T19:36:40.051Z,-1.50
2023-11-30T19:40:41.636Z,-1.51
2023-11-30T19:44:43.199Z,-1.45
2023-11-30T19:48:44.708Z,-1.44
2023-11-30T19:52:47.585Z,-1.47
2023-11-30T19:56:49.131Z,-1.46
2023-11-30T20:00:50.722Z,-1.46
2023-11-30T20:04:52.246Z,-1.47
2023-11-30T20:08:55.143Z,-1.46
2023-11-30T20:12:56.731Z,-1.49
2023-11-30T20:16:58.302Z,-1.47
2023-11-30T20:20:59.815Z,-1.54
2023-11-30T20:25:02.655Z,-1.55
2023-11-30T20:29:04.162Z,-1.60
2023-11-30T20:33:05.723Z,-1.59
2023-11-30T20:37:07.301Z,-1.62
2023-11-30T20:41:10.199Z,-1.59
2023-11-30T20:45:11.715Z,-1.53
2023-11-30T20:49:13.327Z,-1.48
2023-11-30T20:53:14.856Z,-1.47
2023-11-30T20:57:17.687Z,-1.44
2023-11-30T21:01:19.343Z,-1.44
2023-11-30T21:05:21.013Z,-1.47
2023-11-30T21:09:22.557Z,-1.49
2023-11-30T21:13:25.451Z,-1.47
2023-11-30T21:17:26.926Z,-1.50
2023-11-30T21:21:29.417Z,-1.49
2023-11-30T21:25:31.133Z,-1.54
2023-11-30T21:29:34.960Z,-1.52
2023-11-30T21:33:38.717Z,-1.52
2023-11-30T21:37:40.262Z,-1.38
2023-11-30T21:41:41.767Z,-1.40
2023-11-30T21:45:45.350Z,-1.47
2023-11-30T21:49:48.552Z,-1.48
2023-11-30T21:53:50.108Z,-1.51
2023-11-30T21:57:51.722Z,-1.59
2023-11-30T22:01:54.895Z,-1.61
2023-11-30T22:05:56.439Z,-1.69
2023-11-30T22:09:57.942Z,-1.72
2023-11-30T22:13:59.458Z,-1.65
2023-11-30T22:18:02.469Z,-1.61
2023-11-30T22:22:04.530Z,-1.48
2023-11-30T22:26:06.120Z,-1.50
2023-11-30T22:30:08.853Z,-1.59
2023-11-30T22:34:11.891Z,-1.62
2023-11-30T22:38:13.449Z,-1.66
2023-11-30T22:42:15.146Z,-1.62
2023-11-30T22:46:16.996Z,-1.58
2023-11-30T22:50:20.029Z,-1.52
2023-11-30T22:54:21.646Z,-1.42
2023-11-30T22:58:23.218Z,-1.50
2023-11-30T23:02:24.996Z,-1.55
2023-11-30T23:06:28.015Z,-1.54
2023-11-30T23:10:29.564Z,-1.52
2023-11-30T23:14:31.112Z,-1.50
2023-11-30T23:18:32.929Z,-1.47
2023-11-30T23:22:36.181Z,-1.51
2023-11-30T23:26:40.337Z,-1.56
2023-11-30T23:30:42.028Z,-1.55
2023-11-30T23:34:46.354Z,-1.49
2023-11-30T23:38:49.186Z,-1.29
2023-11-30T23:42:50.750Z,-1.39
2023-11-30T23:46:52.369Z,-1.36
2023-11-30T23:50:53.855Z,-1.35
2023-11-30T23:54:56.712Z,-1.37
2023-11-30T23:59:02.007Z,-1.44
